Time;durP1;ratioP1;P1;durP2;ratioP2;P2;SDS_P1;SDS_P2;PMS_P1;PMS_P2;Temp;Humidity;BMP_temperature;BMP_pressure;BME280_temperature;BME280_humidity;BME280_pressure;Samples;Min_cycle;Max_cycle;Signal;HPM_P1;HPM_P2
2022/07/28 00:00:16;;;;;;;22.17;13.48;;;;;;;29.98;64.85;100752.69;4964977;28;66401;-29
2022/07/28 00:02:47;;;;;;;;;;;;;;;29.77;67.70;100756.56;4954958;28;70258;-29
2022/07/28 00:05:19;;;;;;;26.70;15.73;;;;;;;30.09;66.14;100767.38;4953673;28;66015;-28
2022/07/28 00:07:51;;;;;;;28.38;16.27;;;;;;;30.06;67.23;100755.13;4959110;28;69688;-28
2022/07/28 00:10:22;;;;;;;27.75;16.23;;;;;;;30.19;67.04;100765.88;5020293;28;65105;-27
2022/07/28 00:12:55;;;;;;;29.85;16.52;;;;;;;30.22;67.01;100760.03;4957395;28;69585;-29
2022/07/28 00:15:29;;;;;;;25.65;16.23;;;;;;;30.28;67.83;100759.19;4959618;28;65751;-29
2022/07/28 00:18:00;;;;;;;24.23;16.48;;;;;;;30.32;68.32;100769.56;4954563;28;68885;-29
2022/07/28 00:20:32;;;;;;;21.20;15.50;;;;;;;30.34;68.88;100775.56;4954561;28;66000;-32
2022/07/28 00:23:04;;;;;;;32.33;17.70;;;;;;;30.39;70.61;100781.97;4952972;28;69954;-32
2022/07/28 00:25:37;;;;;;;35.30;17.50;;;;;;;30.33;70.12;100773.94;4956613;28;65675;-29
2022/07/28 00:28:08;;;;;;;28.55;18.55;;;;;;;30.36;69.85;100781.59;4957907;28;69263;-31
2022/07/28 00:30:42;;;;;;;24.48;19.90;;;;;;;30.34;70.11;100779.13;4951619;28;66585;-29
2022/07/28 00:33:14;;;;;;;26.23;18.13;;;;;;;30.33;71.05;100793.69;4947950;28;69454;-30
2022/07/28 00:35:45;;;;;;;31.52;21.83;;;;;;;30.33;70.79;100788.28;4955106;28;65142;-32
2022/07/28 00:38:18;;;;;;;26.23;19.92;;;;;;;30.35;71.36;100791.59;4950404;28;70154;-29
2022/07/28 00:41:10;;;;;;;26.50;20.00;;;;;;;30.38;71.06;100799.28;4953484;28;66494;-29
2022/07/28 00:43:46;;;;;;;30.25;20.77;;;;;;;30.33;71.05;100807.22;4957141;28;69476;-29
2022/07/28 00:46:22;;;;;;;31.95;21.00;;;;;;;30.36;71.34;100812.19;4953340;28;65997;-30
2022/07/28 00:48:54;;;;;;;26.38;18.98;;;;;;;30.42;70.47;100818.63;4949254;28;69266;-31
2022/07/28 00:51:28;;;;;;;17.38;15.57;;;;;;;30.52;67.61;100808.13;4954701;28;66458;-30
2022/07/28 00:54:07;;;;;;;17.10;15.27;;;;;;;30.27;67.03;100756.69;4952673;28;70914;-31
2022/07/28 00:56:39;;;;;;;16.63;14.65;;;;;;;30.62;67.07;100803.06;4956577;28;66549;-31
2022/07/28 00:59:11;;;;;;;19.17;14.10;;;;;;;30.72;66.66;100819.63;4954542;28;70200;-30
2022/07/28 01:01:43;;;;;;;15.48;13.88;;;;;;;30.79;66.77;100810.66;4952135;28;65300;-30
2022/07/28 01:04:15;;;;;;;15.60;13.82;;;;;;;30.85;66.69;100823.31;4957505;28;70092;-29
2022/07/28 01:06:54;;;;;;;16.20;14.50;;;;;;;30.56;66.27;100768.75;4953459;28;66734;-30
2022/07/28 01:09:49;;;;;;;16.77;13.48;;;;;;;30.51;66.89;100774.00;4950774;28;69387;-30
2022/07/28 01:12:21;;;;;;;15.13;12.70;;;;;;;31.00;65.44;100834.63;5020844;28;65243;-31
2022/07/28 01:15:29;;;;;;;16.80;13.18;;;;;;;30.87;66.82;100832.03;4951268;28;69743;-30
2022/07/28 01:18:30;;;;;;;18.92;13.30;;;;;;;30.97;66.40;100832.38;4953412;28;66414;-30
2022/07/28 01:21:19;;;;;;;14.93;12.30;;;;;;;31.09;65.14;100825.19;5027360;28;69584;-30
2022/07/28 01:24:07;;;;;;;13.60;11.85;;;;;;;31.16;65.09;100847.63;4957968;28;66017;-31
2022/07/28 01:26:58;;;;;;;11.88;10.80;;;;;;;31.20;64.77;100837.16;5016175;28;68985;-30
2022/07/28 01:30:00;;;;;;;17.10;12.32;;;;;;;31.16;65.04;100836.78;4952166;28;65576;-31
2022/07/28 01:32:43;;;;;;;;;;;;;;;30.95;65.60;100834.47;4960637;28;69675;-31
2022/07/28 01:35:22;;;;;;;11.23;10.43;;;;;;;31.21;64.57;100821.75;5017926;28;66794;-30
2022/07/28 01:38:04;;;;;;;11.90;9.80;;;;;;;31.09;63.49;100794.53;4951782;28;70114;-31
2022/07/28 01:40:40;;;;;;;12.50;10.02;;;;;;;31.29;63.72;100821.47;4955641;28;66186;-31
2022/07/28 01:43:17;;;;;;;13.80;9.55;;;;;;;31.15;63.73;100799.91;4960361;28;70107;-32
2022/07/28 01:45:56;;;;;;;9.80;8.90;;;;;;;30.94;63.65;100762.41;4960267;28;66518;-32
2022/07/28 01:48:32;;;;;;;9.90;9.10;;;;;;;31.29;63.94;100808.72;4958410;28;69260;-30
2022/07/28 01:51:07;;;;;;;10.38;9.20;;;;;;;31.60;64.63;100863.91;4955003;28;65589;-32
2022/07/28 01:53:42;;;;;;;10.70;9.32;;;;;;;31.28;64.23;100806.22;5028934;28;70114;-36
2022/07/28 01:56:27;;;;;;;14.63;9.30;;;;;;;31.63;64.81;100868.03;4953616;28;65376;-31
2022/07/28 01:59:06;;;;;;;13.75;11.20;;;;;;;31.60;66.34;100862.00;5029149;28;70015;-31
2022/07/28 02:01:42;;;;;;;11.85;10.43;;;;;;;31.33;64.26;100860.59;4955111;28;65423;-29
2022/07/28 02:04:20;;;;;;;14.38;9.23;;;;;;;31.18;62.89;100871.78;4951419;28;70162;-30
2022/07/28 02:06:55;;;;;;;12.30;9.18;;;;;;;30.64;61.67;100813.66;4958539;28;65593;-30
2022/07/28 02:09:28;;;;;;;16.73;9.73;;;;;;;30.67;60.42;100843.84;4953104;28;70413;-30
2022/07/28 02:12:12;;;;;;;14.60;8.82;;;;;;;30.66;59.50;100868.44;4955983;28;66284;-29
2022/07/28 02:14:50;;;;;;;13.90;8.52;;;;;;;30.57;58.28;100870.56;5019647;28;69877;-31
2022/07/28 02:17:30;;;;;;;9.30;8.25;;;;;;;30.42;57.55;100856.50;4949334;28;66642;-32
2022/07/28 02:20:14;;;;;;;17.70;8.77;;;;;;;30.32;59.30;100857.00;4955559;28;70266;-29
2022/07/28 02:22:54;;;;;;;15.20;8.05;;;;;;;30.27;58.48;100860.34;4955445;28;66642;-30
2022/07/28 02:25:29;;;;;;;11.40;8.20;;;;;;;29.90;57.86;100809.75;5021096;28;70167;-30
2022/07/28 02:28:16;;;;;;;12.52;8.02;;;;;;;30.18;59.19;100866.19;4952439;28;65773;-30
2022/07/28 02:31:12;;;;;;;9.55;8.73;;;;;;;30.12;59.38;100865.19;4952544;28;70377;-32
2022/07/28 02:33:48;;;;;;;9.13;8.05;;;;;;;30.13;60.14;100863.31;5006236;28;66438;-30
2022/07/28 02:36:55;;;;;;;15.02;8.07;;;;;;;30.02;59.75;100862.09;4955060;28;70221;-30
2022/07/28 02:39:53;;;;;;;9.32;7.88;;;;;;;29.70;58.29;100799.84;4955407;28;65872;-30
2022/07/28 02:42:34;;;;;;;8.32;7.53;;;;;;;29.73;56.83;100788.59;4952284;28;69903;-31
2022/07/28 02:45:12;;;;;;;9.45;6.65;;;;;;;30.07;56.13;100843.34;4956902;28;66919;-29
2022/07/28 02:47:56;;;;;;;9.70;6.72;;;;;;;29.62;55.24;100770.31;5002429;28;69646;-32
2022/07/28 02:50:34;;;;;;;7.00;6.45;;;;;;;30.00;55.33;100840.66;4954533;28;67271;-31
2022/07/28 02:53:11;;;;;;;7.22;6.63;;;;;;;30.02;54.18;100835.06;5016238;28;70254;-30
2022/07/28 02:55:50;;;;;;;7.00;6.35;;;;;;;29.96;54.10;100825.09;4952037;28;65254;-31
2022/07/28 02:58:28;;;;;;;7.07;6.57;;;;;;;29.75;53.24;100791.91;4943420;28;70039;-31
2022/07/28 03:01:01;;;;;;;6.45;5.63;;;;;;;30.00;52.49;100835.25;4942457;28;65667;-29
2022/07/28 03:03:49;;;;;;;6.88;5.40;;;;;;;29.68;51.71;100780.31;5003342;28;70691;-30
2022/07/28 03:06:29;;;;;;;14.30;7.07;;;;;;;29.98;51.97;100823.03;4953779;28;66195;-30
2022/07/28 03:09:05;;;;;;;6.82;5.90;;;;;;;30.02;55.91;100829.66;4955006;28;69736;-30
2022/07/28 03:11:54;;;;;;;9.85;7.35;;;;;;;30.02;59.21;100824.25;4985407;28;65376;-30
2022/07/28 03:14:43;;;;;;;7.88;7.07;;;;;;;30.07;60.66;100821.72;4955573;28;69905;-30
2022/07/28 03:17:20;;;;;;;8.82;8.02;;;;;;;30.12;61.40;100811.09;4957466;28;66436;-30
2022/07/28 03:20:04;;;;;;;9.77;8.90;;;;;;;30.15;61.53;100810.66;5005033;28;69460;-30
2022/07/28 03:22:43;;;;;;;12.73;9.90;;;;;;;30.16;60.83;100809.59;4955181;28;66590;-30
2022/07/28 03:25:55;;;;;;;13.68;10.65;;;;;;;30.11;61.57;100801.28;4953075;28;70216;-31
2022/07/28 03:28:44;;;;;;;15.65;10.80;;;;;;;30.14;61.59;100784.63;4957267;28;66269;-30
2022/07/28 03:31:19;;;;;;;12.40;9.80;;;;;;;30.25;62.12;100792.06;4956098;28;69527;-30
2022/07/28 03:33:58;;;;;;;11.85;10.07;;;;;;;30.28;62.62;100786.25;5000346;28;65758;-30
2022/07/28 03:36:46;;;;;;;11.23;10.02;;;;;;;30.42;63.66;100780.72;4953861;28;70397;-29
2022/07/28 03:39:18;;;;;;;16.25;10.30;;;;;;;30.38;64.18;100763.28;5005462;28;65380;-31
2022/07/28 03:42:10;;;;;;;16.25;11.95;;;;;;;30.63;64.26;100793.88;4949775;28;70606;-29
2022/07/28 03:44:47;;;;;;;15.93;11.23;;;;;;;30.72;64.57;100789.84;5028165;28;65337;-30
2022/07/28 03:47:23;;;;;;;21.30;13.02;;;;;;;30.55;64.48;100737.31;4952270;28;69603;-30
2022/07/28 03:49:56;;;;;;;25.90;14.10;;;;;;;30.63;64.51;100745.16;5029631;28;65670;-31
2022/07/28 03:52:33;;;;;;;21.30;13.70;;;;;;;30.94;64.53;100773.22;4958828;28;70154;-30
2022/07/28 03:55:08;;;;;;;21.05;14.38;;;;;;;30.97;64.98;100764.66;4958648;28;66669;-30
2022/07/28 03:57:58;;;;;;;17.73;13.82;;;;;;;31.03;62.60;100774.59;5021851;28;70110;-31
2022/07/28 04:00:36;;;;;;;19.27;13.73;;;;;;;31.04;60.92;100768.13;4960865;28;65528;-30
2022/07/28 04:03:14;;;;;;;20.40;13.52;;;;;;;31.06;60.46;100766.00;4953952;28;70869;-31
2022/07/28 04:06:15;;;;;;;14.77;12.75;;;;;;;31.04;60.47;100751.88;4957320;28;65453;-28
2022/07/28 04:08:51;;;;;;;17.92;12.88;;;;;;;31.13;60.23;100766.78;4952671;28;70848;-31
2022/07/28 04:11:23;;;;;;;13.13;11.90;;;;;;;31.13;60.06;100761.38;5009168;28;65486;-31
2022/07/28 04:14:01;;;;;;;20.77;12.00;;;;;;;31.16;59.72;100769.03;5012461;28;69514;-31
2022/07/28 04:16:46;;;;;;;14.25;12.77;;;;;;;31.15;59.46;100748.44;4955385;28;65881;-30
2022/07/28 04:19:27;;;;;;;13.65;12.25;;;;;;;31.19;58.69;100743.38;4954666;28;69590;-30
2022/07/28 04:22:05;;;;;;;13.98;12.60;;;;;;;31.20;58.52;100744.19;5016251;28;65790;-32
2022/07/28 04:24:38;;;;;;;13.68;12.38;;;;;;;31.21;58.26;100735.84;4953922;28;70112;-31
2022/07/28 04:27:16;;;;;;;16.80;11.70;;;;;;;31.22;58.28;100737.50;4953879;28;65673;-31
2022/07/28 04:30:00;;;;;;;13.63;11.52;;;;;;;31.20;57.86;100733.34;5000785;28;70239;-29
2022/07/28 04:32:33;;;;;;;12.35;11.38;;;;;;;31.19;57.37;100715.47;4952128;28;66680;-31
2022/07/28 04:35:09;;;;;;;12.48;11.25;;;;;;;31.30;57.61;100730.97;5019562;28;70253;-31
2022/07/28 04:37:49;;;;;;;15.10;11.32;;;;;;;31.00;57.75;100674.81;4955365;28;66310;-30
2022/07/28 04:40:30;;;;;;;11.88;10.70;;;;;;;31.30;57.50;100723.66;5012735;28;69940;-30
2022/07/28 04:43:02;;;;;;;11.27;10.27;;;;;;;31.30;57.27;100720.13;5037557;28;66553;-31
2022/07/28 04:45:41;;;;;;;11.40;10.35;;;;;;;31.32;56.96;100712.59;5019333;28;70370;-31
2022/07/28 04:48:26;;;;;;;11.32;10.18;;;;;;;31.34;56.55;100713.16;5022706;28;65550;-32
2022/07/28 04:51:00;;;;;;;11.70;10.25;;;;;;;31.36;57.87;100711.09;4956244;28;69138;-33
2022/07/28 04:53:50;;;;;;;10.80;9.90;;;;;;;31.40;58.72;100701.47;4978960;28;66854;-34
2022/07/28 04:56:38;;;;;;;11.30;9.93;;;;;;;31.39;59.60;100688.97;4959636;28;69433;-35
2022/07/28 04:59:15;;;;;;;10.50;9.48;;;;;;;31.49;59.98;100686.53;5017001;28;66142;-35
2022/07/28 05:02:08;;;;;;;9.73;8.50;;;;;;;31.54;60.29;100678.56;5015343;28;69847;-34
2022/07/28 05:04:44;;;;;;;11.30;8.82;;;;;;;31.57;60.69;100678.09;5018804;28;65065;-35
2022/07/28 05:07:17;;;;;;;8.75;7.93;;;;;;;31.59;60.77;100673.28;4951851;28;70051;-34
2022/07/28 05:09:49;;;;;;;9.52;8.27;;;;;;;31.42;60.82;100618.03;5004204;28;66147;-35
2022/07/28 05:12:24;;;;;;;8.48;7.82;;;;;;;31.65;60.82;100651.69;5019978;28;70175;-35
2022/07/28 05:14:56;;;;;;;13.13;7.88;;;;;;;31.70;60.59;100635.56;5019498;28;66608;-35
2022/07/28 05:17:28;;;;;;;11.77;8.80;;;;;;;31.69;60.98;100623.88;5002546;28;70404;-35
2022/07/28 05:20:00;;;;;;;9.60;8.60;;;;;;;31.81;61.55;100637.47;4998327;28;66105;-37
2022/07/28 05:22:47;;;;;;;9.30;7.75;;;;;;;31.22;60.55;100538.88;4987664;28;69906;-34
2022/07/28 05:25:21;;;;;;;9.30;8.30;;;;;;;31.74;59.85;100625.91;4949271;28;65554;-42
2022/07/28 05:27:53;;;;;;;9.70;8.20;;;;;;;31.72;59.61;100617.19;4956440;28;70041;-36
2022/07/28 05:30:25;;;;;;;7.97;7.28;;;;;;;31.65;58.82;100611.00;5036648;28;65904;-34
2022/07/28 05:33:00;;;;;;;7.82;7.30;;;;;;;31.54;57.96;100604.53;5003542;28;70159;-33
2022/07/28 05:35:32;;;;;;;7.60;7.00;;;;;;;31.50;57.24;100606.84;4957182;28;67064;-34
2022/07/28 05:38:03;;;;;;;9.43;6.38;;;;;;;31.39;57.82;100608.47;5014721;28;69939;-33
2022/07/28 05:40:39;;;;;;;12.27;6.85;;;;;;;31.41;58.24;100605.53;5040397;28;66070;-34
2022/07/28 05:43:12;;;;;;;19.65;8.32;;;;;;;31.38;57.42;100601.41;4956884;28;70288;-35
2022/07/28 05:45:43;;;;;;;9.23;6.72;;;;;;;31.39;56.56;100585.97;4954492;28;66522;-35
2022/07/28 05:48:22;;;;;;;13.60;6.60;;;;;;;31.36;55.52;100589.13;4959909;28;69347;-34
2022/07/28 05:50:53;;;;;;;9.23;6.38;;;;;;;31.31;55.16;100572.69;4957611;28;65750;-35
2022/07/28 05:53:25;;;;;;;8.35;5.97;;;;;;;31.34;53.95;100574.94;5023846;28;70167;-31
2022/07/28 05:55:56;;;;;;;8.35;5.40;;;;;;;31.35;53.09;100568.50;4957699;28;65849;-30
2022/07/28 05:58:30;;;;;;;6.90;5.60;;;;;;;31.35;52.66;100563.88;5037907;28;70076;-30
2022/07/28 06:01:01;;;;;;;;;;;;;;;31.07;53.15;100563.69;4958736;28;65657;-30
2022/07/28 06:03:34;;;;;;;7.47;4.90;;;;;;;31.36;51.86;100548.47;4957172;28;70043;-31
2022/07/28 06:06:11;;;;;;;6.38;4.82;;;;;;;31.38;51.48;100546.38;5001816;28;66366;-30
2022/07/28 06:08:46;;;;;;;5.05;4.65;;;;;;;31.31;50.62;100537.47;4953726;28;70480;-30
2022/07/28 06:11:18;;;;;;;5.55;4.90;;;;;;;31.36;50.10;100551.19;5008971;28;66171;-29
2022/07/28 06:13:52;;;;;;;4.78;4.38;;;;;;;31.05;50.04;100498.06;5023534;28;70038;-30
2022/07/28 06:16:23;;;;;;;5.10;4.45;;;;;;;31.34;49.88;100546.00;4956369;28;66328;-29
2022/07/28 06:18:55;;;;;;;4.65;4.25;;;;;;;31.32;49.13;100539.97;4948792;28;69699;-29
2022/07/28 06:21:27;;;;;;;5.22;4.43;;;;;;;31.22;48.57;100533.44;5021977;28;65973;-29
2022/07/28 06:23:58;;;;;;;6.22;4.57;;;;;;;31.22;48.18;100525.31;5019289;28;68697;-29
2022/07/28 06:26:30;;;;;;;5.20;4.70;;;;;;;31.24;48.19;100539.47;4953421;28;65274;-32
2022/07/28 06:29:01;;;;;;;5.32;4.20;;;;;;;31.21;47.22;100539.94;4952981;28;69398;-30
2022/07/28 06:31:33;;;;;;;5.70;4.60;;;;;;;31.19;47.66;100533.91;4955487;28;65954;-31
2022/07/28 06:34:05;;;;;;;3.83;3.45;;;;;;;31.20;46.96;100535.56;5012132;28;70911;-31
2022/07/28 06:36:37;;;;;;;4.43;4.13;;;;;;;31.09;47.28;100510.06;5008598;28;66073;-30
2022/07/28 06:39:08;;;;;;;6.30;4.28;;;;;;;31.12;47.23;100526.72;5016798;28;70214;-29
2022/07/28 06:41:43;;;;;;;10.55;4.47;;;;;;;31.06;46.67;100505.94;4954969;28;66009;-30
2022/07/28 06:44:14;;;;;;;4.13;3.85;;;;;;;30.88;46.68;100473.50;4951743;28;69904;-29
2022/07/28 06:46:46;;;;;;;;;;;;;;;30.81;47.11;100516.09;4956877;28;65549;-30
2022/07/28 06:49:17;;;;;;;5.28;4.13;;;;;;;31.07;46.61;100502.19;4960020;28;69946;-31
2022/07/28 06:51:49;;;;;;;4.68;4.22;;;;;;;31.08;46.18;100495.72;4953679;28;66538;-31
2022/07/28 06:54:20;;;;;;;6.53;3.75;;;;;;;31.03;46.19;100494.75;5013383;28;69837;-30
2022/07/28 06:56:52;;;;;;;9.35;4.25;;;;;;;31.06;45.68;100491.56;5001309;28;65380;-29
2022/07/28 06:59:24;;;;;;;4.10;3.67;;;;;;;31.03;46.04;100479.31;4956314;28;70468;-30
2022/07/28 07:02:00;;;;;;;4.68;4.05;;;;;;;30.99;45.59;100483.56;4952966;28;66245;-29
2022/07/28 07:04:33;;;;;;;5.22;3.67;;;;;;;30.92;45.13;100461.16;4958777;28;69437;-30
2022/07/28 07:07:06;;;;;;;4.57;3.97;;;;;;;31.00;45.24;100468.94;4957844;28;66229;-30
2022/07/28 07:09:46;;;;;;;4.72;4.32;;;;;;;31.01;46.43;100458.94;4954594;28;70416;-31
2022/07/28 07:12:18;;;;;;;4.72;4.38;;;;;;;31.07;48.95;100445.31;4954182;28;66251;-29
2022/07/28 07:14:49;;;;;;;4.88;4.13;;;;;;;31.03;48.32;100418.91;4950760;28;69427;-30
2022/07/28 07:17:21;;;;;;;4.68;4.20;;;;;;;31.11;47.62;100421.28;4952041;28;66115;-30
2022/07/28 07:19:52;;;;;;;;;;;;;;;30.88;47.45;100427.47;4955529;28;70391;-29
2022/07/28 07:22:24;;;;;;;6.25;3.80;;;;;;;31.14;46.63;100427.03;4963963;28;66303;-30
2022/07/28 07:24:56;;;;;;;3.85;3.65;;;;;;;31.15;46.05;100423.28;4958124;28;68906;-30
2022/07/28 07:27:27;;;;;;;;;;;;;;;30.90;45.75;100430.78;4950532;28;66288;-30
2022/07/28 07:29:58;;;;;;;3.78;3.47;;;;;;;31.13;45.22;100425.41;4949758;28;69287;-29
2022/07/28 07:32:30;;;;;;;4.07;3.67;;;;;;;31.12;45.23;100423.75;4954174;28;65603;-30
2022/07/28 07:35:01;;;;;;;7.13;3.70;;;;;;;31.16;44.92;100422.22;5003409;28;70324;-29
2022/07/28 07:37:33;;;;;;;3.13;2.92;;;;;;;31.11;44.66;100413.97;4952794;28;66166;-29
2022/07/28 07:40:05;;;;;;;3.17;2.97;;;;;;;31.18;46.71;100422.00;4951556;28;69853;-30
2022/07/28 07:42:37;;;;;;;3.80;3.25;;;;;;;31.19;46.63;100414.69;4954587;28;66019;-30
2022/07/28 07:45:09;;;;;;;6.13;3.67;;;;;;;31.11;45.97;100402.31;4948711;28;69496;-30
2022/07/28 07:47:40;;;;;;;4.20;3.20;;;;;;;31.10;45.64;100406.91;4952119;28;66658;-30
2022/07/28 07:50:12;;;;;;;3.67;3.40;;;;;;;31.11;45.57;100408.53;4950436;28;70554;-30
2022/07/28 07:52:44;;;;;;;5.40;3.10;;;;;;;31.11;45.55;100405.84;4958931;28;66276;-30
2022/07/28 07:55:16;;;;;;;4.00;3.13;;;;;;;31.07;45.95;100399.25;4946341;28;68269;-30
2022/07/28 07:57:48;;;;;;;5.13;3.67;;;;;;;31.06;47.62;100397.59;4949667;28;66149;-31
2022/07/28 08:00:20;;;;;;;5.10;4.32;;;;;;;30.97;52.80;100368.38;5018769;28;70468;-30
2022/07/28 08:02:59;;;;;;;5.43;4.55;;;;;;;31.33;55.57;100392.56;4945914;28;66441;-31
2022/07/28 08:05:31;;;;;;;20.00;5.75;;;;;;;31.46;56.87;100394.25;5020126;28;67640;-30
2022/07/28 08:08:06;;;;;;;21.52;5.82;;;;;;;31.53;56.84;100396.81;5018799;28;65887;-31
2022/07/28 08:10:38;;;;;;;13.73;6.30;;;;;;;31.56;57.38;100386.31;4953501;28;69531;-30
2022/07/28 08:13:10;;;;;;;7.53;5.30;;;;;;;31.59;57.11;100385.03;4953366;28;66343;-30
2022/07/28 08:15:42;;;;;;;15.75;5.45;;;;;;;31.50;57.58;100375.63;4952344;28;70132;-31
2022/07/28 08:18:16;;;;;;;11.32;5.65;;;;;;;31.60;57.47;100376.69;4957760;28;43195;-29
2022/07/28 08:20:49;;;;;;;6.20;5.35;;;;;;;31.61;57.13;100381.03;5023957;28;69967;-30
2022/07/28 08:23:21;;;;;;;6.80;5.28;;;;;;;31.60;57.65;100384.81;4957566;28;66536;-30
2022/07/28 08:25:55;;;;;;;5.78;5.03;;;;;;;31.61;57.79;100383.72;4954644;28;69951;-31
2022/07/28 08:28:26;;;;;;;8.02;5.80;;;;;;;31.60;58.47;100384.81;4954896;28;66062;-30
2022/07/28 08:30:58;;;;;;;6.88;5.15;;;;;;;31.61;58.15;100378.31;4954208;28;69208;-30
2022/07/28 08:33:30;;;;;;;8.30;5.05;;;;;;;31.29;58.24;100323.63;4954271;28;66063;-29
2022/07/28 08:36:02;;;;;;;14.85;5.53;;;;;;;31.63;57.90;100379.97;4947632;28;69287;-30
2022/07/28 08:38:33;;;;;;;8.82;5.45;;;;;;;31.56;57.79;100370.06;4953313;28;65938;-32
2022/07/28 08:41:08;;;;;;;8.43;5.47;;;;;;;31.58;57.84;100373.38;4952308;28;69715;-30
2022/07/28 08:43:42;;;;;;;9.55;4.70;;;;;;;31.59;57.87;100382.31;4951097;28;65298;-30
2022/07/28 08:46:14;;;;;;;6.13;4.28;;;;;;;31.58;57.97;100373.38;4950165;28;70373;-30
2022/07/28 08:48:49;;;;;;;5.53;5.03;;;;;;;31.59;57.58;100369.63;4952515;28;65590;-31
2022/07/28 08:51:22;;;;;;;5.93;5.03;;;;;;;31.58;57.64;100378.78;4949454;28;70205;-30
2022/07/28 08:53:54;;;;;;;11.40;4.68;;;;;;;31.58;57.80;100372.53;4952138;28;65297;-29
2022/07/28 08:56:27;;;;;;;12.52;4.38;;;;;;;31.52;57.31;100365.38;5025596;28;70394;-32
2022/07/28 08:58:59;;;;;;;4.57;4.18;;;;;;;31.55;57.72;100373.03;4957101;28;65281;-30
2022/07/28 09:01:31;;;;;;;7.53;4.25;;;;;;;31.43;57.27;100369.50;4952134;28;70117;-29
2022/07/28 09:04:08;;;;;;;10.68;5.38;;;;;;;31.50;57.52;100381.84;4956174;28;66659;-30
2022/07/28 09:06:41;;;;;;;5.32;4.80;;;;;;;31.25;57.90;100329.75;4952691;28;70159;-31
2022/07/28 09:09:13;;;;;;;8.40;4.97;;;;;;;31.51;57.53;100378.09;4952209;28;66613;-30
2022/07/28 09:11:45;;;;;;;14.50;5.47;;;;;;;31.47;57.97;100376.09;4958139;28;69880;-30
2022/07/28 09:14:16;;;;;;;11.13;5.03;;;;;;;31.39;57.70;100369.13;4955713;28;65366;-30
2022/07/28 09:16:47;;;;;;;8.68;5.22;;;;;;;31.46;57.78;100380.69;4953955;28;70201;-30
2022/07/28 09:19:19;;;;;;;5.45;4.95;;;;;;;31.47;59.18;100379.63;4955846;28;65938;-30
2022/07/28 09:21:51;;;;;;;16.15;4.55;;;;;;;31.57;60.44;100388.00;5020075;28;69546;-29
2022/07/28 09:24:43;;;;;;;13.50;5.30;;;;;;;31.30;62.15;100335.31;4998926;28;64774;-29
2022/07/28 09:27:15;;;;;;;7.93;5.05;;;;;;;31.79;62.69;100380.06;4952295;28;70838;-29
2022/07/28 09:29:57;;;;;;;5.97;4.60;;;;;;;31.90;63.76;100385.69;4954969;28;66281;-29
2022/07/28 09:32:30;;;;;;;5.53;4.97;;;;;;;31.86;64.03;100366.38;4955724;28;70376;-29
2022/07/28 09:35:01;;;;;;;9.38;5.00;;;;;;;32.01;64.07;100376.72;4956927;28;66369;-29
2022/07/28 09:37:33;;;;;;;5.00;3.97;;;;;;;32.05;64.02;100372.50;4957851;28;70477;-30
2022/07/28 09:40:12;;;;;;;7.45;4.55;;;;;;;31.84;63.20;100319.66;4956968;28;65303;-30
2022/07/28 09:42:54;;;;;;;11.23;4.65;;;;;;;32.33;62.46;100370.88;4950220;28;70065;-29
2022/07/28 09:45:28;;;;;;;7.03;4.25;;;;;;;32.40;62.09;100357.94;4957965;28;66348;-31
2022/07/28 09:48:13;;;;;;;11.90;4.63;;;;;;;32.44;61.78;100353.69;4952371;28;69900;-31
2022/07/28 09:50:45;;;;;;;13.25;5.00;;;;;;;32.56;60.65;100349.06;4949849;28;66220;-31
2022/07/28 09:53:27;;;;;;;8.90;5.22;;;;;;;32.50;62.77;100358.19;4954122;28;70135;-32
2022/07/28 09:56:00;;;;;;;8.45;5.60;;;;;;;32.15;63.13;100296.72;4951796;28;65985;-30
2022/07/28 09:58:32;;;;;;;11.77;5.40;;;;;;;32.47;63.96;100348.63;4959034;28;70322;-30
2022/07/28 10:01:19;;;;;;;6.93;5.47;;;;;;;32.43;64.05;100357.47;4953714;28;65302;-30
2022/07/28 10:03:54;;;;;;;13.02;5.55;;;;;;;32.42;64.49;100351.22;4951169;28;70568;-32
2022/07/28 10:06:32;;;;;;;7.07;5.82;;;;;;;32.11;64.85;100311.84;4954300;28;66441;-32
2022/07/28 10:09:11;;;;;;;6.40;5.60;;;;;;;32.41;65.40;100365.88;4957878;28;69528;-30
2022/07/28 10:11:43;;;;;;;8.18;5.68;;;;;;;32.42;65.64;100386.50;4955188;28;66441;-31
2022/07/28 10:14:17;;;;;;;11.85;5.75;;;;;;;32.42;65.95;100399.25;5018287;28;70022;-30
2022/07/28 10:16:52;;;;;;;6.72;6.05;;;;;;;32.45;65.86;100399.59;4957796;28;66246;-32
2022/07/28 10:19:24;;;;;;;6.85;6.13;;;;;;;32.47;65.90;100413.78;4957236;28;70409;-31
2022/07/28 10:21:57;;;;;;;7.90;7.07;;;;;;;32.43;66.21;100412.59;5027010;28;65120;-31
2022/07/28 10:24:34;;;;;;;7.43;6.78;;;;;;;32.49;65.08;100411.66;4952694;28;70161;-31
2022/07/28 10:27:06;;;;;;;10.20;7.50;;;;;;;32.52;64.53;100428.53;4953484;28;66385;-29
2022/07/28 10:29:37;;;;;;;;;;;;;;;31.98;65.72;100390.78;4951144;28;69972;-30
2022/07/28 10:32:12;;;;;;;8.55;7.65;;;;;;;32.49;64.50;100438.81;5024023;28;66889;-31
2022/07/28 10:34:49;;;;;;;11.80;8.77;;;;;;;32.53;64.23;100449.19;4955568;28;68712;-31
2022/07/28 10:37:27;;;;;;;14.48;8.43;;;;;;;32.23;64.88;100409.47;4955057;28;66170;-30
2022/07/28 10:40:04;;;;;;;11.10;8.02;;;;;;;32.54;64.76;100475.25;5017008;28;70306;-30
2022/07/28 10:42:40;;;;;;;12.10;7.90;;;;;;;32.52;65.31;100480.13;4952524;28;65330;-31
2022/07/28 10:45:14;;;;;;;11.82;7.93;;;;;;;32.49;65.25;100476.81;4952048;28;70083;-32
2022/07/28 10:47:46;;;;;;;14.38;7.93;;;;;;;32.57;64.75;100499.22;5013352;28;65342;-31
2022/07/28 10:50:19;;;;;;;12.80;8.07;;;;;;;32.47;65.12;100484.38;4954853;28;70013;-33
2022/07/28 10:52:52;;;;;;;18.10;7.85;;;;;;;32.55;65.33;100531.22;4954665;28;66736;-33
2022/07/28 10:55:40;;;;;;;10.55;7.28;;;;;;;32.29;65.20;100506.25;4954219;28;69763;-32
2022/07/28 10:59:05;;;;;;;15.50;7.80;;;;;;;32.32;66.34;100542.91;4950013;28;66373;-30
2022/07/28 11:01:40;;;;;;;10.88;7.80;;;;;;;32.23;66.50;100509.88;4988788;28;70316;-30
2022/07/28 11:04:41;;;;;;;10.68;6.63;;;;;;;32.46;66.86;100564.19;4990260;28;66710;-31
2022/07/28 11:07:15;;;;;;;16.42;6.63;;;;;;;32.58;66.61;100564.16;4959846;28;70995;-34
2022/07/28 11:09:48;;;;;;;18.00;6.43;;;;;;;32.33;67.12;100529.13;4954780;28;65717;-32
2022/07/28 11:12:52;;;;;;;8.48;5.50;;;;;;;32.42;67.89;100559.44;4948777;28;69754;-31
2022/07/28 11:15:36;;;;;;;6.63;5.50;;;;;;;32.44;67.79;100566.28;5016371;28;66606;-31
2022/07/28 11:18:09;;;;;;;7.18;4.90;;;;;;;32.21;67.60;100522.88;5020138;28;70304;-32
2022/07/28 11:20:56;;;;;;;5.35;4.00;;;;;;;32.45;67.32;100583.38;4972898;28;65944;-31
2022/07/28 11:23:43;;;;;;;4.38;4.00;;;;;;;32.44;66.79;100588.00;5007034;28;69126;-30
2022/07/28 11:26:37;;;;;;;5.05;4.07;;;;;;;32.35;66.79;100584.00;5018711;28;66160;-31
2022/07/28 11:29:11;;;;;;;6.45;4.53;;;;;;;32.42;66.71;100590.09;4955741;28;70872;-29
2022/07/28 11:31:45;;;;;;;11.43;4.10;;;;;;;32.43;66.90;100589.06;4957666;28;65388;-29
2022/07/28 11:34:22;;;;;;;5.05;4.53;;;;;;;32.11;66.76;100538.94;4953118;28;70370;-29
2022/07/28 11:37:08;;;;;;;4.43;4.03;;;;;;;32.29;67.30;100590.38;4952142;28;66209;-29
2022/07/28 11:39:44;;;;;;;5.53;4.57;;;;;;;32.37;67.37;100592.69;5013233;28;70108;-30
2022/07/28 11:42:29;;;;;;;;;;;;;;;32.03;68.73;100594.38;4948337;28;65583;-30
2022/07/28 11:45:23;;;;;;;7.93;4.80;;;;;;;32.22;67.77;100595.09;4951026;28;70031;-30
2022/07/28 11:48:22;;;;;;;8.50;4.80;;;;;;;31.65;67.97;100497.13;4949848;28;66225;-30
2022/07/28 11:51:20;;;;;;;7.53;4.78;;;;;;;32.15;67.89;100600.66;4958615;28;70106;-29
2022/07/28 11:53:53;;;;;;;6.28;5.25;;;;;;;31.92;67.94;100541.75;4963082;28;66521;-29
2022/07/28 11:56:36;;;;;;;5.97;5.40;;;;;;;32.34;67.23;100598.59;4968091;28;70297;-30
2022/07/28 11:59:10;;;;;;;9.05;4.82;;;;;;;32.44;66.71;100582.56;4958637;28;66427;-30
2022/07/28 12:01:51;;;;;;;4.85;4.35;;;;;;;32.21;66.80;100539.16;4949169;28;69497;-31
2022/07/28 12:04:26;;;;;;;5.70;4.10;;;;;;;32.51;66.12;100570.78;4957425;28;65385;-29
2022/07/28 12:06:59;;;;;;;5.10;4.45;;;;;;;32.58;65.91;100576.91;4987338;28;70194;-29